createdAt,value
2023-05-23T00:03:27.892Z,21.10
2023-05-23T00:08:31.325Z,20.13
2023-05-23T00:13:35.175Z,16.37
2023-05-23T00:18:40.664Z,18.60
2023-05-23T00:23:44.235Z,19.13
2023-05-23T00:28:47.833Z,16.47
2023-05-23T00:33:51.386Z,18.17
2023-05-23T00:38:54.783Z,15.40
2023-05-23T00:44:00.869Z,16.87
2023-05-23T00:49:04.956Z,17.90
2023-05-23T00:54:08.302Z,18.63
2023-05-23T00:59:12.995Z,16.83
2023-05-23T01:04:17.143Z,17.07
2023-05-23T01:09:21.997Z,16.40
2023-05-23T01:14:46.833Z,16.73
2023-05-23T01:20:26.154Z,15.13
2023-05-23T01:25:51.501Z,15.33
2023-05-23T01:30:58.109Z,18.17
2023-05-23T01:36:06.167Z,16.90
2023-05-23T01:41:09.673Z,15.50
2023-05-23T01:46:13.967Z,14.87
2023-05-23T01:51:17.601Z,18.50
2023-05-23T01:56:22.160Z,18.90
2023-05-23T02:01:25.801Z,18.03
2023-05-23T02:06:29.176Z,19.00
2023-05-23T02:11:32.450Z,23.90
2023-05-23T02:16:36.973Z,20.63
2023-05-23T02:21:40.187Z,18.30
2023-05-23T02:26:43.535Z,17.73
2023-05-23T02:31:46.941Z,21.13
2023-05-23T02:36:50.468Z,20.73
2023-05-23T02:41:53.706Z,20.87
2023-05-23T02:46:57.218Z,20.13
2023-05-23T02:52:00.483Z,18.77
2023-05-23T02:57:04.753Z,19.47
2023-05-23T03:02:08.132Z,23.43
2023-05-23T03:07:27.070Z,22.23
2023-05-23T03:12:31.258Z,22.17
2023-05-23T03:17:34.616Z,22.27
2023-05-23T03:22:38.252Z,22.43
2023-05-23T03:27:41.817Z,23.20
2023-05-23T03:32:45.387Z,20.63
2023-05-23T03:37:48.719Z,24.33
2023-05-23T03:43:05.219Z,30.70
2023-05-23T03:48:08.717Z,24.63
2023-05-23T03:53:12.034Z,29.17
2023-05-23T03:58:15.516Z,28.07
2023-05-23T04:03:19.278Z,30.20
2023-05-23T04:08:22.680Z,24.47
2023-05-23T04:13:26.883Z,25.60
2023-05-23T04:18:31.011Z,21.47
2023-05-23T04:23:34.236Z,24.23
2023-05-23T04:28:38.182Z,22.73
2023-05-23T04:33:41.753Z,19.07
2023-05-23T04:38:44.955Z,18.13
2023-05-23T04:43:48.178Z,22.90
2023-05-23T04:48:51.440Z,24.83
2023-05-23T04:53:54.705Z,22.50
2023-05-23T04:58:58.307Z,16.33
2023-05-23T05:04:01.590Z,15.75
2023-05-23T05:09:05.143Z,15.77
2023-05-23T05:14:08.407Z,17.50
2023-05-23T05:19:11.785Z,14.13
2023-05-23T05:24:16.200Z,15.68
2023-05-23T05:29:19.558Z,18.92
2023-05-23T05:34:23.300Z,17.27
2023-05-23T05:39:26.932Z,25.17
2023-05-23T05:44:30.203Z,15.27
2023-05-23T05:49:36.250Z,15.52
2023-05-23T05:54:39.761Z,19.75
2023-05-23T05:59:42.910Z,15.93
2023-05-23T06:04:46.300Z,12.35
2023-05-23T06:09:49.549Z,11.35
2023-05-23T06:14:52.827Z,8.90
2023-05-23T06:19:56.065Z,9.35
2023-05-23T06:24:59.467Z,12.27
2023-05-23T06:30:03.852Z,8.27
2023-05-23T06:35:07.645Z,8.85
2023-05-23T06:40:12.067Z,6.53
2023-05-23T06:45:16.764Z,8.13
2023-05-23T06:50:20.456Z,9.48
2023-05-23T06:55:24.687Z,9.68
2023-05-23T07:00:28.395Z,10.23
2023-05-23T07:05:33.677Z,5.03
2023-05-23T07:10:37.220Z,5.47
2023-05-23T07:15:40.312Z,7.40
2023-05-23T07:20:43.872Z,10.65
2023-05-23T07:26:01.107Z,9.52
2023-05-23T07:31:06.071Z,4.53
2023-05-23T07:36:09.976Z,6.22
2023-05-23T07:41:13.852Z,6.18
2023-05-23T07:46:17.544Z,6.70
2023-05-23T07:51:21.814Z,6.55
2023-05-23T07:56:25.020Z,5.03
2023-05-23T08:01:28.814Z,5.10
2023-05-23T08:06:32.393Z,7.90
2023-05-23T08:11:35.820Z,5.65
2023-05-23T08:16:39.549Z,5.82
2023-05-23T08:21:43.640Z,4.35
2023-05-23T08:26:47.596Z,4.47
2023-05-23T08:31:50.999Z,3.35
2023-05-23T08:36:54.212Z,5.72
2023-05-23T08:41:58.101Z,5.10
2023-05-23T08:47:08.175Z,5.07
2023-05-23T08:52:14.074Z,8.45
2023-05-23T08:57:18.355Z,4.45
2023-05-23T09:02:21.816Z,5.68
2023-05-23T09:07:25.663Z,6.22
2023-05-23T09:12:29.994Z,5.88
2023-05-23T09:17:33.957Z,4.15
2023-05-23T09:22:37.223Z,4.22
2023-05-23T09:27:41.592Z,6.03
2023-05-23T09:33:04.698Z,5.80
2023-05-23T09:38:09.127Z,4.32
2023-05-23T09:43:12.755Z,5.18
2023-05-23T09:48:16.315Z,4.00
2023-05-23T09:53:22.059Z,3.22
2023-05-23T09:58:26.593Z,4.55
2023-05-23T10:03:46.418Z,4.70
2023-05-23T10:09:05.198Z,4.50
2023-05-23T10:14:11.256Z,4.97
2023-05-23T10:19:39.130Z,3.70
2023-05-23T10:24:45.296Z,4.25
2023-05-23T10:29:49.093Z,4.03
2023-05-23T10:34:58.254Z,3.75
2023-05-23T10:40:06.630Z,5.15
2023-05-23T10:45:24.730Z,4.10
2023-05-23T10:50:34.980Z,5.25
2023-05-23T10:55:39.178Z,4.15
2023-05-23T11:00:55.485Z,7.30
2023-05-23T11:06:08.532Z,4.25
2023-05-23T11:11:11.839Z,3.92
2023-05-23T11:16:32.338Z,4.00
2023-05-23T11:21:37.636Z,5.18
2023-05-23T11:26:41.055Z,3.78
2023-05-23T11:31:44.426Z,4.15
2023-05-23T11:36:47.713Z,3.83
2023-05-23T11:42:04.182Z,3.47
2023-05-23T11:47:08.840Z,6.38
2023-05-23T11:52:12.158Z,6.00
2023-05-23T11:57:15.474Z,8.25
2023-05-23T12:02:18.699Z,5.53
2023-05-23T12:07:21.963Z,12.82
2023-05-23T12:12:25.482Z,6.65
2023-05-23T12:17:28.874Z,3.85
2023-05-23T12:22:32.655Z,9.75
2023-05-23T12:27:37.610Z,8.70
2023-05-23T12:32:46.352Z,7.45
2023-05-23T12:37:49.828Z,6.20
2023-05-23T12:42:57.774Z,5.82
2023-05-23T12:48:02.514Z,3.90
2023-05-23T12:53:05.925Z,6.65
2023-05-23T12:58:09.095Z,6.93
2023-05-23T13:03:12.755Z,6.57
2023-05-23T13:08:15.882Z,5.03
2023-05-23T13:13:19.327Z,6.72
2023-05-23T13:18:22.657Z,3.60
2023-05-23T13:23:26.588Z,5.28
2023-05-23T13:28:29.811Z,4.53
2023-05-23T13:33:33.218Z,5.15
2023-05-23T13:38:36.707Z,4.55
2023-05-23T13:43:40.107Z,9.35
2023-05-23T13:48:43.425Z,7.47
2023-05-23T13:53:46.946Z,6.38
2023-05-23T13:58:50.355Z,4.32
2023-05-23T14:03:53.825Z,5.15
2023-05-23T14:08:57.489Z,6.90
2023-05-23T14:14:01.065Z,5.63
2023-05-23T14:19:04.942Z,6.90
2023-05-23T14:24:08.487Z,3.63
2023-05-23T14:29:11.670Z,4.00
2023-05-23T14:34:14.949Z,4.88
2023-05-23T14:39:18.519Z,5.03
2023-05-23T14:44:21.596Z,6.57
2023-05-23T14:49:24.800Z,3.95
2023-05-23T14:54:27.992Z,4.60
2023-05-23T14:59:32.395Z,8.18
2023-05-23T15:04:38.217Z,4.82
2023-05-23T15:09:41.938Z,5.97
2023-05-23T15:14:45.274Z,4.70
2023-05-23T15:19:48.448Z,9.10
2023-05-23T15:24:51.717Z,4.95
2023-05-23T15:29:54.992Z,3.80
2023-05-23T15:34:58.291Z,7.35
2023-05-23T15:40:02.782Z,6.63
2023-05-23T15:45:06.725Z,8.30
2023-05-23T15:50:12.879Z,4.38
2023-05-23T15:55:17.853Z,4.90
2023-05-23T16:00:21.858Z,3.70
2023-05-23T16:05:26.166Z,3.83
2023-05-23T16:10:29.457Z,6.63
2023-05-23T16:15:32.950Z,7.10
2023-05-23T16:20:36.401Z,5.35
2023-05-23T16:25:39.914Z,5.72
2023-05-23T16:30:43.220Z,6.70
2023-05-23T16:35:46.519Z,3.95
2023-05-23T16:40:49.792Z,9.70
2023-05-23T16:45:53.128Z,7.72
2023-05-23T16:50:57.846Z,6.65
2023-05-23T16:56:01.487Z,6.47
2023-05-23T17:01:05.392Z,5.95
2023-05-23T17:06:08.629Z,8.32
2023-05-23T17:11:11.753Z,5.30
2023-05-23T17:16:20.454Z,10.27
2023-05-23T17:21:23.913Z,9.20
2023-05-23T17:26:28.063Z,7.43
2023-05-23T17:31:31.867Z,12.95
2023-05-23T17:36:35.861Z,9.30
2023-05-23T17:41:39.161Z,9.98
2023-05-23T17:46:42.633Z,10.05
2023-05-23T17:51:46.778Z,13.60
2023-05-23T17:56:50.156Z,6.20
2023-05-23T18:01:53.439Z,6.43
2023-05-23T18:06:56.654Z,7.05
2023-05-23T18:12:00.141Z,7.13
2023-05-23T18:17:04.004Z,7.38
2023-05-23T18:22:07.270Z,6.85
2023-05-23T18:27:10.552Z,7.47
2023-05-23T18:32:14.954Z,7.35
2023-05-23T18:37:18.565Z,8.98
2023-05-23T18:42:22.546Z,8.00
2023-05-23T18:47:25.853Z,8.32
2023-05-23T18:52:31.071Z,6.90
2023-05-23T18:57:34.572Z,15.02
2023-05-23T19:02:39.957Z,7.60
2023-05-23T19:07:44.434Z,10.70
2023-05-23T19:12:48.822Z,15.27
2023-05-23T19:17:52.341Z,17.65
2023-05-23T19:22:56.125Z,7.65
2023-05-23T19:27:59.361Z,9.27
2023-05-23T19:33:03.006Z,8.70
2023-05-23T19:38:06.552Z,11.32
2023-05-23T19:43:09.914Z,14.15
2023-05-23T19:48:13.338Z,9.73
2023-05-23T19:53:17.393Z,14.18
2023-05-23T19:58:20.719Z,15.15
2023-05-23T20:03:24.811Z,11.07
2023-05-23T20:08:28.235Z,10.65
2023-05-23T20:13:33.141Z,15.25
2023-05-23T20:18:36.811Z,18.52
2023-05-23T20:23:43.803Z,15.68
2023-05-23T20:28:47.035Z,13.45
2023-05-23T20:33:50.428Z,16.10
2023-05-23T20:38:54.144Z,12.07
2023-05-23T20:43:57.461Z,11.30
2023-05-23T20:49:01.693Z,17.52
2023-05-23T20:54:05.806Z,15.05
2023-05-23T20:59:12.638Z,15.10
2023-05-23T21:04:18.125Z,10.80
2023-05-23T21:09:22.280Z,13.27
2023-05-23T21:14:25.450Z,14.95
2023-05-23T21:19:28.748Z,13.00
2023-05-23T21:24:31.893Z,17.15
2023-05-23T21:29:36.016Z,11.63
2023-05-23T21:34:39.400Z,14.98
2023-05-23T21:39:51.161Z,15.05
2023-05-23T21:44:55.902Z,14.82
2023-05-23T21:49:59.609Z,13.95
2023-05-23T21:55:03.083Z,17.75
2023-05-23T22:00:12.634Z,15.77
2023-05-23T22:05:16.239Z,14.82
2023-05-23T22:10:19.776Z,17.42
2023-05-23T22:15:22.914Z,13.63
2023-05-23T22:20:26.498Z,15.10
2023-05-23T22:25:32.827Z,16.65
2023-05-23T22:30:36.234Z,11.57
2023-05-23T22:35:45.888Z,15.35
2023-05-23T22:40:49.077Z,11.65
2023-05-23T22:45:52.909Z,14.38
2023-05-23T22:50:57.457Z,13.75
2023-05-23T22:56:00.616Z,14.57
2023-05-23T23:01:03.900Z,12.48
2023-05-23T23:06:08.003Z,13.40
2023-05-23T23:11:11.227Z,13.02
2023-05-23T23:16:14.455Z,15.70
2023-05-23T23:21:17.738Z,17.17
2023-05-23T23:26:22.026Z,15.80
2023-05-23T23:31:25.410Z,19.50
2023-05-23T23:36:28.678Z,16.83
2023-05-23T23:41:31.814Z,15.45
2023-05-23T23:46:35.096Z,15.50
2023-05-23T23:51:38.679Z,18.48
2023-05-23T23:56:42.211Z,20.00
